sensor_id;sensor_type;location;lat;lon;timestamp;pressure;altitude;pressure_sealevel;temperature;humidity
13661;BME280;6903;49.480;11.102;2023-03-21T00:01:11;98082.22;;;9.07;100.00
13661;BME280;6903;49.480;11.102;2023-03-21T00:03:36;98084.75;;;9.08;100.00
13661;BME280;6903;49.480;11.102;2023-03-21T00:06:06;98084.84;;;9.07;100.00
13661;BME280;6903;49.480;11.102;2023-03-21T00:08:32;98089.25;;;9.06;100.00
13661;BME280;6903;49.480;11.102;2023-03-21T00:10:59;98090.22;;;9.05;100.00
13661;BME280;6903;49.480;11.102;2023-03-21T00:13:26;98087.66;;;9.04;100.00
13661;BME280;6903;49.480;11.102;2023-03-21T00:15:53;98085.25;;;9.01;100.00
13661;BME280;6903;49.480;11.102;2023-03-21T00:18:19;98083.47;;;9.01;100.00
13661;BME280;6903;49.480;11.102;2023-03-21T00:20:55;98090.41;;;9.02;100.00
13661;BME280;6903;49.480;11.102;2023-03-21T00:23:23;98092.84;;;9.05;100.00
13661;BME280;6903;49.480;11.102;2023-03-21T00:25:48;98080.53;;;9.06;100.00
13661;BME280;6903;49.480;11.102;2023-03-21T00:28:13;98086.41;;;9.09;100.00
13661;BME280;6903;49.480;11.102;2023-03-21T00:30:39;98083.66;;;9.11;100.00
13661;BME280;6903;49.480;11.102;2023-03-21T00:33:04;98083.44;;;9.14;100.00
13661;BME280;6903;49.480;11.102;2023-03-21T00:35:30;98082.41;;;9.16;100.00
13661;BME280;6903;49.480;11.102;2023-03-21T00:37:55;98079.03;;;9.14;100.00
13661;BME280;6903;49.480;11.102;2023-03-21T00:40:20;98072.91;;;9.14;100.00
13661;BME280;6903;49.480;11.102;2023-03-21T00:42:46;98070.19;;;9.15;100.00
13661;BME280;6903;49.480;11.102;2023-03-21T00:45:11;98068.50;;;9.14;100.00
13661;BME280;6903;49.480;11.102;2023-03-21T00:47:36;98065.88;;;9.14;100.00
13661;BME280;6903;49.480;11.102;2023-03-21T00:50:02;98064.09;;;9.15;100.00
13661;BME280;6903;49.480;11.102;2023-03-21T00:52:29;98061.59;;;9.13;100.00
13661;BME280;6903;49.480;11.102;2023-03-21T00:54:54;98059.13;;;9.10;100.00
13661;BME280;6903;49.480;11.102;2023-03-21T00:57:19;98046.31;;;9.06;100.00
13661;BME280;6903;49.480;11.102;2023-03-21T00:59:44;98055.28;;;9.03;100.00
13661;BME280;6903;49.480;11.102;2023-03-21T01:02:10;98052.88;;;9.00;100.00
13661;BME280;6903;49.480;11.102;2023-03-21T01:04:39;98051.41;;;8.96;100.00
13661;BME280;6903;49.480;11.102;2023-03-21T01:07:04;98044.81;;;8.91;100.00
13661;BME280;6903;49.480;11.102;2023-03-21T01:09:30;98042.81;;;8.82;100.00
13661;BME280;6903;49.480;11.102;2023-03-21T01:11:55;98042.41;;;8.75;100.00
13661;BME280;6903;49.480;11.102;2023-03-21T01:14:22;98045.47;;;8.69;100.00
13661;BME280;6903;49.480;11.102;2023-03-21T01:16:48;98044.00;;;8.65;100.00
13661;BME280;6903;49.480;11.102;2023-03-21T01:19:15;98041.69;;;8.60;100.00
13661;BME280;6903;49.480;11.102;2023-03-21T01:21:42;98050.66;;;8.58;100.00
13661;BME280;6903;49.480;11.102;2023-03-21T01:24:08;98042.03;;;8.56;100.00
13661;BME280;6903;49.480;11.102;2023-03-21T01:26:33;98041.28;;;8.54;100.00
13661;BME280;6903;49.480;11.102;2023-03-21T01:29:02;98041.41;;;8.52;100.00
13661;BME280;6903;49.480;11.102;2023-03-21T01:31:27;98041.41;;;8.52;100.00
13661;BME280;6903;49.480;11.102;2023-03-21T01:33:52;98039.63;;;8.53;100.00
13661;BME280;6903;49.480;11.102;2023-03-21T01:36:23;98041.50;;;8.51;100.00
13661;BME280;6903;49.480;11.102;2023-03-21T01:38:50;98038.13;;;8.49;100.00
13661;BME280;6903;49.480;11.102;2023-03-21T01:41:37;98043.41;;;8.49;100.00
13661;BME280;6903;49.480;11.102;2023-03-21T01:44:03;98037.53;;;8.45;100.00
13661;BME280;6903;49.480;11.102;2023-03-21T01:46:41;98036.78;;;8.43;100.00
13661;BME280;6903;49.480;11.102;2023-03-21T01:49:20;98036.06;;;8.41;100.00
13661;BME280;6903;49.480;11.102;2023-03-21T01:51:54;98034.50;;;8.39;100.00
13661;BME280;6903;49.480;11.102;2023-03-21T01:54:25;98033.75;;;8.37;100.00
13661;BME280;6903;49.480;11.102;2023-03-21T01:56:55;98022.41;;;8.36;100.00
13661;BME280;6903;49.480;11.102;2023-03-21T01:59:41;98026.91;;;8.34;100.00
13661;BME280;6903;49.480;11.102;2023-03-21T02:02:12;98024.50;;;8.31;100.00
13661;BME280;6903;49.480;11.102;2023-03-21T02:04:42;98021.34;;;8.26;100.00
13661;BME280;6903;49.480;11.102;2023-03-21T02:07:17;98025.88;;;8.24;100.00
13661;BME280;6903;49.480;11.102;2023-03-21T02:09:47;98018.25;;;8.20;100.00
13661;BME280;6903;49.480;11.102;2023-03-21T02:12:14;98019.34;;;8.17;100.00
13661;BME280;6903;49.480;11.102;2023-03-21T02:14:40;98018.69;;;8.14;100.00
13661;BME280;6903;49.480;11.102;2023-03-21T02:28:28;98020.03;;;7.94;100.00
13661;BME280;6903;49.480;11.102;2023-03-21T02:33:44;98017.72;;;7.77;100.00
13661;BME280;6903;49.480;11.102;2023-03-21T02:36:17;98016.56;;;7.69;100.00
13661;BME280;6903;49.480;11.102;2023-03-21T02:39:30;98024.00;;;7.62;100.00
13661;BME280;6903;49.480;11.102;2023-03-21T02:42:04;98019.16;;;7.56;100.00
13661;BME280;6903;49.480;11.102;2023-03-21T02:45:04;98015.78;;;7.54;100.00
13661;BME280;6903;49.480;11.102;2023-03-21T02:47:41;98014.13;;;7.53;100.00
13661;BME280;6903;49.480;11.102;2023-03-21T02:50:14;98017.59;;;7.54;100.00
13661;BME280;6903;49.480;11.102;2023-03-21T02:52:43;98019.16;;;7.56;100.00
13661;BME280;6903;49.480;11.102;2023-03-21T02:55:21;98018.09;;;7.59;100.00
13661;BME280;6903;49.480;11.102;2023-03-21T02:57:50;98017.94;;;7.62;100.00
13661;BME280;6903;49.480;11.102;2023-03-21T03:00:19;98018.63;;;7.64;100.00
13661;BME280;6903;49.480;11.102;2023-03-21T03:02:47;98011.53;;;7.66;100.00
13661;BME280;6903;49.480;11.102;2023-03-21T03:05:20;98011.31;;;7.69;100.00
13661;BME280;6903;49.480;11.102;2023-03-21T03:11:07;98013.34;;;7.78;100.00
13661;BME280;6903;49.480;11.102;2023-03-21T03:13:52;98006.00;;;7.83;100.00
13661;BME280;6903;49.480;11.102;2023-03-21T03:16:38;98008.19;;;7.89;100.00
13661;BME280;6903;49.480;11.102;2023-03-21T03:19:07;98005.34;;;7.92;100.00
13661;BME280;6903;49.480;11.102;2023-03-21T03:21:39;98008.72;;;7.94;100.00
13661;BME280;6903;49.480;11.102;2023-03-21T03:24:11;98006.00;;;7.95;100.00
13661;BME280;6903;49.480;11.102;2023-03-21T03:26:47;98005.03;;;7.96;100.00
13661;BME280;6903;49.480;11.102;2023-03-21T03:29:16;98005.34;;;7.92;100.00
13661;BME280;6903;49.480;11.102;2023-03-21T03:32:06;98005.47;;;7.90;100.00
13661;BME280;6903;49.480;11.102;2023-03-21T03:34:35;98000.44;;;7.87;100.00
13661;BME280;6903;49.480;11.102;2023-03-21T03:37:08;98002.09;;;7.88;100.00
13661;BME280;6903;49.480;11.102;2023-03-21T03:39:39;98004.09;;;7.85;100.00
13661;BME280;6903;49.480;11.102;2023-03-21T03:42:14;98002.63;;;7.81;100.00
13661;BME280;6903;49.480;11.102;2023-03-21T03:44:41;98000.91;;;7.80;100.00
13661;BME280;6903;49.480;11.102;2023-03-21T03:47:07;98003.66;;;7.78;100.00
13661;BME280;6903;49.480;11.102;2023-03-21T03:49:47;97997.69;;;7.76;100.00
13661;BME280;6903;49.480;11.102;2023-03-21T03:52:25;97996.00;;;7.75;100.00
13661;BME280;6903;49.480;11.102;2023-03-21T03:54:52;97996.94;;;7.74;100.00
13661;BME280;6903;49.480;11.102;2023-03-21T03:57:18;97997.78;;;7.75;100.00
13661;BME280;6903;49.480;11.102;2023-03-21T03:59:44;97995.34;;;7.72;100.00
13661;BME280;6903;49.480;11.102;2023-03-21T04:02:11;97999.88;;;7.70;100.00
13661;BME280;6903;49.480;11.102;2023-03-21T04:04:37;97996.50;;;7.68;100.00
13661;BME280;6903;49.480;11.102;2023-03-21T04:07:03;97994.22;;;7.63;100.00
13661;BME280;6903;49.480;11.102;2023-03-21T04:09:29;97994.31;;;7.62;100.00
13661;BME280;6903;49.480;11.102;2023-03-21T04:11:55;97995.56;;;7.56;100.00
13661;BME280;6903;49.480;11.102;2023-03-21T04:14:22;97990.81;;;7.49;100.00
13661;BME280;6903;49.480;11.102;2023-03-21T04:16:47;97981.78;;;7.40;100.00
13661;BME280;6903;49.480;11.102;2023-03-21T04:19:13;98000.66;;;7.33;100.00
13661;BME280;6903;49.480;11.102;2023-03-21T04:21:41;97991.78;;;7.21;100.00
13661;BME280;6903;49.480;11.102;2023-03-21T04:24:07;97998.38;;;7.14;100.00
13661;BME280;6903;49.480;11.102;2023-03-21T04:26:33;97992.69;;;7.07;100.00
13661;BME280;6903;49.480;11.102;2023-03-21T04:29:00;97990.25;;;7.04;100.00
13661;BME280;6903;49.480;11.102;2023-03-21T04:31:26;97987.53;;;7.06;100.00
13661;BME280;6903;49.480;11.102;2023-03-21T04:33:55;97990.91;;;7.08;100.00
13661;BME280;6903;49.480;11.102;2023-03-21T04:36:21;97989.03;;;7.10;100.00
13661;BME280;6903;49.480;11.102;2023-03-21T04:38:52;97989.03;;;7.10;100.00
13661;BME280;6903;49.480;11.102;2023-03-21T04:41:17;97992.47;;;7.10;100.00
13661;BME280;6903;49.480;11.102;2023-03-21T04:43:43;97997.00;;;7.08;100.00
13661;BME280;6903;49.480;11.102;2023-03-21T04:46:09;97994.38;;;7.08;100.00
13661;BME280;6903;49.480;11.102;2023-03-21T04:48:35;97990.81;;;7.09;100.00
13661;BME280;6903;49.480;11.102;2023-03-21T04:51:00;97996.81;;;7.11;100.00
13661;BME280;6903;49.480;11.102;2023-03-21T04:53:26;97993.88;;;7.16;100.00
13661;BME280;6903;49.480;11.102;2023-03-21T04:55:51;97990.19;;;7.18;100.00
13661;BME280;6903;49.480;11.102;2023-03-21T04:58:16;97990.19;;;7.18;100.00
13661;BME280;6903;49.480;11.102;2023-03-21T05:00:44;97991.56;;;7.11;100.00
13661;BME280;6903;49.480;11.102;2023-03-21T05:03:10;97990.25;;;7.04;100.00
13661;BME280;6903;49.480;11.102;2023-03-21T05:05:43;97987.00;;;7.01;100.00
13661;BME280;6903;49.480;11.102;2023-03-21T05:08:09;97989.59;;;7.01;100.00
13661;BME280;6903;49.480;11.102;2023-03-21T05:10:34;97984.38;;;7.01;100.00
13661;BME280;6903;49.480;11.102;2023-03-21T05:12:59;97988.59;;;7.03;100.00
13661;BME280;6903;49.480;11.102;2023-03-21T05:15:25;97982.41;;;7.04;100.00
13661;BME280;6903;49.480;11.102;2023-03-21T05:17:50;97984.81;;;7.07;100.00
13661;BME280;6903;49.480;11.102;2023-03-21T05:20:15;97983.69;;;7.11;100.00
13661;BME280;6903;49.480;11.102;2023-03-21T05:22:42;97984.34;;;7.15;100.00
13661;BME280;6903;49.480;11.102;2023-03-21T05:25:10;97989.28;;;7.19;100.00
13661;BME280;6903;49.480;11.102;2023-03-21T05:27:37;97991.50;;;7.26;100.00
13661;BME280;6903;49.480;11.102;2023-03-21T05:30:11;97992.78;;;7.33;100.00
13661;BME280;6903;49.480;11.102;2023-03-21T05:32:37;97996.88;;;7.37;100.00
13661;BME280;6903;49.480;11.102;2023-03-21T05:35:02;98000.97;;;7.41;100.00
13661;BME280;6903;49.480;11.102;2023-03-21T05:37:28;97999.00;;;7.44;100.00
13661;BME280;6903;49.480;11.102;2023-03-21T05:39:53;97998.78;;;7.47;100.00
13661;BME280;6903;49.480;11.102;2023-03-21T05:42:19;97999.22;;;7.54;100.00
13661;BME280;6903;49.480;11.102;2023-03-21T05:44:44;98008.34;;;7.61;100.00
13661;BME280;6903;49.480;11.102;2023-03-21T05:47:12;97998.28;;;7.67;100.00
13661;BME280;6903;49.480;11.102;2023-03-21T05:49:37;98009.97;;;7.76;100.00
13661;BME280;6903;49.480;11.102;2023-03-21T05:52:03;97993.69;;;7.83;100.00
13661;BME280;6903;49.480;11.102;2023-03-21T05:54:28;97994.84;;;7.92;100.00
13661;BME280;6903;49.480;11.102;2023-03-21T05:56:53;98003.91;;;8.00;100.00
13661;BME280;6903;49.480;11.102;2023-03-21T05:59:18;98001.59;;;8.08;100.00
13661;BME280;6903;49.480;11.102;2023-03-21T06:01:44;98009.69;;;8.18;100.00
13661;BME280;6903;49.480;11.102;2023-03-21T06:04:09;98002.84;;;8.28;100.00
13661;BME280;6903;49.480;11.102;2023-03-21T06:06:35;98001.38;;;8.36;100.00
13661;BME280;6903;49.480;11.102;2023-03-21T06:09:00;98006.00;;;8.45;100.00
13661;BME280;6903;49.480;11.102;2023-03-21T06:11:28;98015.84;;;8.54;100.00
13661;BME280;6903;49.480;11.102;2023-03-21T06:13:55;98015.41;;;8.60;100.00
13661;BME280;6903;49.480;11.102;2023-03-21T06:16:20;98016.06;;;8.64;100.00
13661;BME280;6903;49.480;11.102;2023-03-21T06:18:45;98008.91;;;8.66;100.00
13661;BME280;6903;49.480;11.102;2023-03-21T06:21:11;98015.59;;;8.70;100.00
13661;BME280;6903;49.480;11.102;2023-03-21T06:23:36;98011.59;;;8.77;100.00
13661;BME280;6903;49.480;11.102;2023-03-21T06:26:02;98000.41;;;8.86;100.00
13661;BME280;6903;49.480;11.102;2023-03-21T06:28:27;98000.59;;;8.96;100.00
13661;BME280;6903;49.480;11.102;2023-03-21T06:30:53;98009.63;;;9.04;100.00
13661;BME280;6903;49.480;11.102;2023-03-21T06:33:18;98007.50;;;9.09;100.00
13661;BME280;6903;49.480;11.102;2023-03-21T06:35:43;98005.16;;;9.17;100.00
13661;BME280;6903;49.480;11.102;2023-03-21T06:38:09;98016.06;;;9.24;100.00
13661;BME280;6903;49.480;11.102;2023-03-21T06:40:36;98011.94;;;9.32;100.00
13661;BME280;6903;49.480;11.102;2023-03-21T06:43:02;98011.47;;;9.38;100.00
13661;BME280;6903;49.480;11.102;2023-03-21T06:45:27;98012.72;;;9.45;100.00
13661;BME280;6903;49.480;11.102;2023-03-21T06:47:53;98014.66;;;9.54;100.00
13661;BME280;6903;49.480;11.102;2023-03-21T06:50:18;98014.34;;;9.70;100.00
13661;BME280;6903;49.480;11.102;2023-03-21T06:52:43;98012.56;;;9.81;100.00
13661;BME280;6903;49.480;11.102;2023-03-21T06:55:09;98010.69;;;9.94;100.00
13661;BME280;6903;49.480;11.102;2023-03-21T06:57:34;98011.25;;;10.11;100.00
13661;BME280;6903;49.480;11.102;2023-03-21T06:59:59;98016.88;;;10.28;100.00
13661;BME280;6903;49.480;11.102;2023-03-21T07:02:25;98005.16;;;10.43;100.00
13661;BME280;6903;49.480;11.102;2023-03-21T07:04:50;98007.44;;;10.59;100.00
13661;BME280;6903;49.480;11.102;2023-03-21T07:07:15;98012.94;;;10.78;100.00
13661;BME280;6903;49.480;11.102;2023-03-21T07:09:41;98015.06;;;11.06;100.00
13661;BME280;6903;49.480;11.102;2023-03-21T07:12:06;98020.72;;;11.33;100.00
13661;BME280;6903;49.480;11.102;2023-03-21T07:14:32;98014.91;;;11.50;100.00
13661;BME280;6903;49.480;11.102;2023-03-21T07:16:58;98013.03;;;11.73;100.00
13661;BME280;6903;49.480;11.102;2023-03-21T07:19:24;98009.06;;;11.99;100.00
13661;BME280;6903;49.480;11.102;2023-03-21T07:21:50;98010.28;;;12.15;100.00
13661;BME280;6903;49.480;11.102;2023-03-21T07:24:16;98003.63;;;12.41;100.00
13661;BME280;6903;49.480;11.102;2023-03-21T07:26:41;98010.63;;;12.52;100.00
13661;BME280;6903;49.480;11.102;2023-03-21T07:29:06;98008.81;;;12.52;100.00
13661;BME280;6903;49.480;11.102;2023-03-21T07:31:32;98012.03;;;12.56;100.00
13661;BME280;6903;49.480;11.102;2023-03-21T07:33:57;98009.78;;;12.51;100.00
13661;BME280;6903;49.480;11.102;2023-03-21T07:36:22;98002.47;;;12.34;100.00
13661;BME280;6903;49.480;11.102;2023-03-21T07:38:48;98011.78;;;12.29;100.00
13661;BME280;6903;49.480;11.102;2023-03-21T07:41:13;98014.97;;;12.32;100.00
13661;BME280;6903;49.480;11.102;2023-03-21T07:43:38;98018.00;;;12.28;100.00
13661;BME280;6903;49.480;11.102;2023-03-21T07:46:04;98019.16;;;12.35;100.00
13661;BME280;6903;49.480;11.102;2023-03-21T07:48:30;98007.69;;;12.25;100.00
13661;BME280;6903;49.480;11.102;2023-03-21T07:50:55;98024.06;;;12.39;100.00
13661;BME280;6903;49.480;11.102;2023-03-21T07:53:21;98016.78;;;12.62;100.00
13661;BME280;6903;49.480;11.102;2023-03-21T07:55:53;98020.63;;;12.78;100.00
13661;BME280;6903;49.480;11.102;2023-03-21T07:58:21;98016.00;;;13.01;100.00
13661;BME280;6903;49.480;11.102;2023-03-21T08:00:47;98019.28;;;13.43;100.00
13661;BME280;6903;49.480;11.102;2023-03-21T08:03:12;98020.97;;;13.82;100.00
13661;BME280;6903;49.480;11.102;2023-03-21T08:05:38;98018.13;;;14.12;100.00
13661;BME280;6903;49.480;11.102;2023-03-21T08:08:05;98015.72;;;14.47;100.00
13661;BME280;6903;49.480;11.102;2023-03-21T08:10:30;98023.16;;;14.80;100.00
13661;BME280;6903;49.480;11.102;2023-03-21T08:12:56;98018.78;;;15.33;100.00
13661;BME280;6903;49.480;11.102;2023-03-21T08:15:21;98018.47;;;15.81;100.00
13661;BME280;6903;49.480;11.102;2023-03-21T08:17:47;98020.63;;;16.21;99.91
13661;BME280;6903;49.480;11.102;2023-03-21T08:20:18;98020.41;;;16.40;89.99
13661;BME280;6903;49.480;11.102;2023-03-21T08:22:45;98014.34;;;16.73;89.31
13661;BME280;6903;49.480;11.102;2023-03-21T08:25:12;98015.75;;;17.27;90.16
13661;BME280;6903;49.480;11.102;2023-03-21T08:27:39;98005.84;;;17.69;82.95
13661;BME280;6903;49.480;11.102;2023-03-21T08:30:05;98023.41;;;18.03;77.34
13661;BME280;6903;49.480;11.102;2023-03-21T08:32:31;98013.69;;;17.86;71.19
13661;BME280;6903;49.480;11.102;2023-03-21T08:34:59;98007.91;;;17.91;73.74
13661;BME280;6903;49.480;11.102;2023-03-21T08:37:25;97998.03;;;17.91;69.59
13661;BME280;6903;49.480;11.102;2023-03-21T08:39:51;97997.22;;;17.91;71.23
13661;BME280;6903;49.480;11.102;2023-03-21T08:42:17;97999.34;;;18.35;70.86
13661;BME280;6903;49.480;11.102;2023-03-21T08:44:42;97994.44;;;18.87;69.43
13661;BME280;6903;49.480;11.102;2023-03-21T08:47:07;97993.38;;;19.35;72.01
13661;BME280;6903;49.480;11.102;2023-03-21T08:49:36;97994.41;;;19.34;62.22
13661;BME280;6903;49.480;11.102;2023-03-21T08:52:01;97995.34;;;19.49;67.47
13661;BME280;6903;49.480;11.102;2023-03-21T08:54:27;97994.81;;;19.15;55.47
13661;BME280;6903;49.480;11.102;2023-03-21T08:56:52;97992.34;;;19.05;60.46
13661;BME280;6903;49.480;11.102;2023-03-21T08:59:18;97991.69;;;19.42;59.08
13661;BME280;6903;49.480;11.102;2023-03-21T09:01:43;97994.69;;;19.69;57.60
13661;BME280;6903;49.480;11.102;2023-03-21T09:04:09;97987.91;;;19.82;59.39
13661;BME280;6903;49.480;11.102;2023-03-21T09:06:39;97988.31;;;19.93;57.88
13661;BME280;6903;49.480;11.102;2023-03-21T09:09:10;97987.25;;;20.02;58.93
13661;BME280;6903;49.480;11.102;2023-03-21T09:11:35;97979.59;;;20.14;57.14
13661;BME280;6903;49.480;11.102;2023-03-21T09:14:00;97980.53;;;20.43;55.38
13661;BME280;6903;49.480;11.102;2023-03-21T09:16:26;97982.59;;;20.70;54.34
13661;BME280;6903;49.480;11.102;2023-03-21T09:18:51;97989.34;;;20.81;50.62
13661;BME280;6903;49.480;11.102;2023-03-21T09:21:21;97982.63;;;20.99;52.38
13661;BME280;6903;49.480;11.102;2023-03-21T09:23:48;97987.03;;;21.22;52.91
13661;BME280;6903;49.480;11.102;2023-03-21T09:26:17;97981.31;;;21.25;52.49
13661;BME280;6903;49.480;11.102;2023-03-21T09:28:43;97979.09;;;21.49;50.55
13661;BME280;6903;49.480;11.102;2023-03-21T09:31:10;97977.88;;;21.66;50.69
13661;BME280;6903;49.480;11.102;2023-03-21T09:33:37;97972.88;;;21.84;48.94
13661;BME280;6903;49.480;11.102;2023-03-21T09:36:04;97973.41;;;22.43;50.18
13661;BME280;6903;49.480;11.102;2023-03-21T09:38:33;97977.09;;;22.35;46.26
13661;BME280;6903;49.480;11.102;2023-03-21T09:41:15;97967.34;;;22.34;47.54
13661;BME280;6903;49.480;11.102;2023-03-21T09:46:39;97963.94;;;22.75;48.02
13661;BME280;6903;49.480;11.102;2023-03-21T09:49:14;97966.38;;;23.04;47.35
13661;BME280;6903;49.480;11.102;2023-03-21T09:51:43;97955.81;;;23.02;44.23
13661;BME280;6903;49.480;11.102;2023-03-21T09:54:21;97970.97;;;23.10;43.14
13661;BME280;6903;49.480;11.102;2023-03-21T09:56:51;97958.91;;;22.99;43.01
13661;BME280;6903;49.480;11.102;2023-03-21T09:59:27;97949.47;;;22.76;42.16
13661;BME280;6903;49.480;11.102;2023-03-21T10:01:53;97952.25;;;21.85;43.99
13661;BME280;6903;49.480;11.102;2023-03-21T10:04:20;97949.31;;;21.80;44.88
13661;BME280;6903;49.480;11.102;2023-03-21T10:06:53;97944.22;;;21.70;45.05
13661;BME280;6903;49.480;11.102;2023-03-21T10:09:21;97939.84;;;22.05;47.08
13661;BME280;6903;49.480;11.102;2023-03-21T10:12:01;97939.31;;;22.43;49.62
13661;BME280;6903;49.480;11.102;2023-03-21T10:14:30;97942.56;;;22.39;45.08
13661;BME280;6903;49.480;11.102;2023-03-21T10:17:00;97931.94;;;21.76;44.47
13661;BME280;6903;49.480;11.102;2023-03-21T10:19:28;97930.22;;;22.17;45.47
13661;BME280;6903;49.480;11.102;2023-03-21T10:21:55;97925.34;;;22.55;46.39
13661;BME280;6903;49.480;11.102;2023-03-21T10:24:23;97921.75;;;22.75;46.24
13661;BME280;6903;49.480;11.102;2023-03-21T10:26:51;97921.69;;;23.03;45.48
13661;BME280;6903;49.480;11.102;2023-03-21T10:29:21;97917.53;;;23.07;44.76
13661;BME280;6903;49.480;11.102;2023-03-21T10:31:48;97924.44;;;23.22;44.52
13661;BME280;6903;49.480;11.102;2023-03-21T10:34:30;97915.94;;;23.19;43.57
13661;BME280;6903;49.480;11.102;2023-03-21T10:37:00;97914.47;;;23.10;41.45
13661;BME280;6903;49.480;11.102;2023-03-21T10:39:41;97909.69;;;23.12;40.80
13661;BME280;6903;49.480;11.102;2023-03-21T10:42:26;97898.97;;;23.18;40.50
13661;BME280;6903;49.480;11.102;2023-03-21T10:44:54;97896.38;;;23.44;41.54
13661;BME280;6903;49.480;11.102;2023-03-21T10:47:25;97901.19;;;23.68;41.66
13661;BME280;6903;49.480;11.102;2023-03-21T10:49:50;97896.44;;;23.70;39.44
13661;BME280;6903;49.480;11.102;2023-03-21T10:52:20;97898.91;;;23.65;40.26
13661;BME280;6903;49.480;11.102;2023-03-21T10:54:47;97896.88;;;23.81;41.08
13661;BME280;6903;49.480;11.102;2023-03-21T10:57:20;97898.50;;;23.68;40.94
13661;BME280;6903;49.480;11.102;2023-03-21T10:59:51;97889.16;;;23.51;41.28
13661;BME280;6903;49.480;11.102;2023-03-21T11:02:28;97898.06;;;23.65;41.57
13661;BME280;6903;49.480;11.102;2023-03-21T11:04:54;97888.53;;;23.49;41.37
13661;BME280;6903;49.480;11.102;2023-03-21T11:07:20;97880.63;;;23.28;41.73
13661;BME280;6903;49.480;11.102;2023-03-21T11:09:54;97883.53;;;23.33;40.56
13661;BME280;6903;49.480;11.102;2023-03-21T11:12:32;97882.47;;;23.34;41.35
13661;BME280;6903;49.480;11.102;2023-03-21T11:15:24;97879.78;;;23.34;41.05
13661;BME280;6903;49.480;11.102;2023-03-21T11:17:51;97883.06;;;23.23;40.19
13661;BME280;6903;49.480;11.102;2023-03-21T11:20:17;97881.28;;;23.43;41.96
13661;BME280;6903;49.480;11.102;2023-03-21T11:22:43;97878.81;;;23.68;41.11
13661;BME280;6903;49.480;11.102;2023-03-21T11:25:31;97869.72;;;23.95;38.40
13661;BME280;6903;49.480;11.102;2023-03-21T11:28:05;97861.63;;;23.82;36.95
13661;BME280;6903;49.480;11.102;2023-03-21T11:30:31;97866.34;;;23.34;37.83
13661;BME280;6903;49.480;11.102;2023-03-21T11:33:00;97865.03;;;23.17;39.51
13661;BME280;6903;49.480;11.102;2023-03-21T11:35:32;97865.56;;;23.47;39.42
13661;BME280;6903;49.480;11.102;2023-03-21T11:37:58;97865.34;;;23.48;39.54
13661;BME280;6903;49.480;11.102;2023-03-21T11:42:59;97853.34;;;23.70;40.04
13661;BME280;6903;49.480;11.102;2023-03-21T11:45:30;97853.13;;;23.72;40.07
13661;BME280;6903;49.480;11.102;2023-03-21T11:48:01;97849.59;;;23.52;40.00
13661;BME280;6903;49.480;11.102;2023-03-21T11:50:39;97841.69;;;23.24;41.06
13661;BME280;6903;49.480;11.102;2023-03-21T11:53:27;97845.47;;;22.83;41.53
13661;BME280;6903;49.480;11.102;2023-03-21T11:58:54;97840.91;;;22.83;43.26
13661;BME280;6903;49.480;11.102;2023-03-21T12:01:31;97839.75;;;23.12;42.90
13661;BME280;6903;49.480;11.102;2023-03-21T12:04:20;97840.28;;;23.48;41.45
13661;BME280;6903;49.480;11.102;2023-03-21T12:10:43;97823.91;;;23.36;39.65
13661;BME280;6903;49.480;11.102;2023-03-21T12:16:07;97811.66;;;23.14;41.26
13661;BME280;6903;49.480;11.102;2023-03-21T12:21:28;97805.50;;;23.33;41.50
13661;BME280;6903;49.480;11.102;2023-03-21T12:24:22;97805.59;;;22.99;41.10
13661;BME280;6903;49.480;11.102;2023-03-21T12:27:01;97805.38;;;22.94;43.96
13661;BME280;6903;49.480;11.102;2023-03-21T12:32:57;97791.72;;;22.42;42.75
13661;BME280;6903;49.480;11.102;2023-03-21T12:35:52;97790.72;;;22.09;42.16
13661;BME280;6903;49.480;11.102;2023-03-21T12:38:47;97780.94;;;21.74;43.15
13661;BME280;6903;49.480;11.102;2023-03-21T12:43:55;97778.66;;;22.39;43.42
13661;BME280;6903;49.480;11.102;2023-03-21T12:46:36;97781.53;;;22.72;44.06
13661;BME280;6903;49.480;11.102;2023-03-21T12:51:37;97775.59;;;23.02;42.86
13661;BME280;6903;49.480;11.102;2023-03-21T12:54:34;97765.28;;;23.06;41.63
13661;BME280;6903;49.480;11.102;2023-03-21T12:57:10;97764.75;;;22.70;42.15
13661;BME280;6903;49.480;11.102;2023-03-21T12:59:45;97769.56;;;22.74;42.69
13661;BME280;6903;49.480;11.102;2023-03-21T13:02:28;97760.69;;;22.87;42.51
13661;BME280;6903;49.480;11.102;2023-03-21T13:04:59;97762.56;;;22.93;43.13
13661;BME280;6903;49.480;11.102;2023-03-21T13:07:32;97760.06;;;22.91;42.75
13661;BME280;6903;49.480;11.102;2023-03-21T13:10:01;97747.00;;;22.75;43.40
13661;BME280;6903;49.480;11.102;2023-03-21T13:12:39;97747.00;;;22.75;44.95
13661;BME280;6903;49.480;11.102;2023-03-21T13:18:01;97746.22;;;23.01;42.75
13661;BME280;6903;49.480;11.102;2023-03-21T13:20:36;97741.91;;;23.06;42.93
13661;BME280;6903;49.480;11.102;2023-03-21T13:23:07;97725.34;;;23.03;42.94
13661;BME280;6903;49.480;11.102;2023-03-21T13:25:40;97737.94;;;22.96;43.40
13661;BME280;6903;49.480;11.102;2023-03-21T13:28:37;97729.44;;;22.92;43.58
13661;BME280;6903;49.480;11.102;2023-03-21T13:31:22;97729.03;;;22.89;44.72
13661;BME280;6903;49.480;11.102;2023-03-21T13:33:50;97719.50;;;22.86;43.25
13661;BME280;6903;49.480;11.102;2023-03-21T13:36:22;97730.69;;;22.90;43.77
13661;BME280;6903;49.480;11.102;2023-03-21T13:38:50;97719.50;;;22.86;43.63
13661;BME280;6903;49.480;11.102;2023-03-21T13:41:19;97727.34;;;22.75;44.41
13661;BME280;6903;49.480;11.102;2023-03-21T13:43:54;97723.84;;;22.68;44.26
13661;BME280;6903;49.480;11.102;2023-03-21T13:49:12;97720.28;;;22.61;44.05
13661;BME280;6903;49.480;11.102;2023-03-21T13:51:45;97717.16;;;22.57;45.80
13661;BME280;6903;49.480;11.102;2023-03-21T13:59:16;97706.31;;;22.37;44.71
13661;BME280;6903;49.480;11.102;2023-03-21T14:04:35;97702.38;;;22.27;45.27
13661;BME280;6903;49.480;11.102;2023-03-21T14:07:05;97695.50;;;22.11;45.22
13661;BME280;6903;49.480;11.102;2023-03-21T14:09:43;97693.63;;;22.12;45.33